createdAt,value
2023-02-16T00:01:25.676Z,102111.63
2023-02-16T00:03:53.610Z,102116.47
2023-02-16T00:06:20.162Z,102108.78
2023-02-16T00:08:47.904Z,102110.94
2023-02-16T00:11:53.749Z,102111.63
2023-02-16T00:14:23.426Z,102112.44
2023-02-16T00:16:50.582Z,102111.19
2023-02-16T00:19:34.686Z,102106.75
2023-02-16T00:22:02.019Z,102100.13
2023-02-16T00:24:29.605Z,102101.19
2023-02-16T00:26:57.071Z,102098.63
2023-02-16T00:29:31.722Z,102098.03
2023-02-16T00:31:59.563Z,102086.53
2023-02-16T00:34:27.699Z,102085.53
2023-02-16T00:36:55.442Z,102090.16
2023-02-16T00:39:22.133Z,102088.81
2023-02-16T00:41:51.564Z,102077.25
2023-02-16T00:44:21.431Z,102082.66
2023-02-16T00:46:48.214Z,102077.44
2023-02-16T00:49:16.146Z,102076.69
2023-02-16T00:51:42.998Z,102069.16
2023-02-16T00:54:09.633Z,102073.38
2023-02-16T00:56:36.798Z,102066.03
2023-02-16T00:59:05.251Z,102067.06
2023-02-16T01:01:32.982Z,102070.78
2023-02-16T01:04:01.728Z,102062.50
2023-02-16T01:06:46.869Z,102068.00
2023-02-16T01:09:34.864Z,102059.63
2023-02-16T01:12:03.161Z,102054.84
2023-02-16T01:14:30.891Z,102058.75
2023-02-16T01:16:57.305Z,102055.69
2023-02-16T01:19:23.901Z,102064.03
2023-02-16T01:21:50.310Z,102066.28
2023-02-16T01:24:16.743Z,102062.50
2023-02-16T01:26:47.502Z,102066.44
2023-02-16T01:29:19.068Z,102062.84
2023-02-16T01:31:45.690Z,102074.03
2023-02-16T01:34:13.016Z,102060.47
2023-02-16T01:36:42.755Z,102066.09
2023-02-16T01:39:17.828Z,102069.34
2023-02-16T01:42:06.984Z,102064.03
2023-02-16T01:44:39.025Z,102060.16
2023-02-16T01:47:31.300Z,102057.81
2023-02-16T01:49:57.775Z,102063.88
2023-02-16T01:52:38.080Z,102061.56
2023-02-16T01:55:15.571Z,102061.38
2023-02-16T01:57:47.723Z,102067.28
2023-02-16T02:00:28.748Z,102059.19
2023-02-16T02:03:20.622Z,102065.06
2023-02-16T02:05:50.500Z,102068.94
2023-02-16T02:08:22.342Z,102058.34
2023-02-16T02:11:01.869Z,102055.16
2023-02-16T02:13:50.226Z,102049.88
2023-02-16T02:16:18.357Z,102039.78
2023-02-16T02:18:45.074Z,102052.25
2023-02-16T02:22:02.293Z,102048.97
2023-02-16T02:24:37.626Z,102047.41
2023-02-16T02:27:22.484Z,102046.19
2023-02-16T02:30:33.563Z,102045.44
2023-02-16T02:33:17.204Z,102048.75
2023-02-16T02:35:43.517Z,102041.94
2023-02-16T02:38:25.081Z,102036.22
2023-02-16T02:40:58.503Z,102040.41
2023-02-16T02:43:24.851Z,102034.59
2023-02-16T02:45:55.363Z,102029.72
2023-02-16T02:48:21.900Z,102035.78
2023-02-16T02:51:16.089Z,102025.19
2023-02-16T02:53:48.356Z,102027.66
2023-02-16T02:56:34.872Z,102019.97
2023-02-16T02:59:25.874Z,102022.06
2023-02-16T03:01:56.937Z,102022.63
2023-02-16T03:04:26.129Z,102017.94
2023-02-16T03:06:53.881Z,102017.63
2023-02-16T03:09:20.861Z,102018.44
2023-02-16T03:12:07.910Z,102005.66
2023-02-16T03:14:51.120Z,102008.13
2023-02-16T03:17:38.652Z,102002.59
2023-02-16T03:20:26.146Z,102002.41
2023-02-16T03:23:11.216Z,101991.75
2023-02-16T03:25:57.713Z,101989.88
2023-02-16T03:28:45.000Z,101991.50
2023-02-16T03:31:16.144Z,101990.03
2023-02-16T03:33:42.850Z,101993.09
2023-02-16T03:36:09.628Z,101981.44
2023-02-16T03:38:36.141Z,101985.72
2023-02-16T03:41:02.918Z,101985.63
2023-02-16T03:43:29.658Z,101992.03
2023-02-16T03:45:56.274Z,101990.72
2023-02-16T03:48:22.677Z,101988.25
2023-02-16T03:50:49.093Z,101989.63
2023-02-16T03:53:18.148Z,101980.31
2023-02-16T03:55:46.746Z,101980.56
2023-02-16T03:58:16.064Z,101965.56
2023-02-16T04:00:42.817Z,101970.50
2023-02-16T04:03:09.656Z,101968.72
2023-02-16T04:05:36.315Z,101965.22
2023-02-16T04:08:02.766Z,101974.09
2023-02-16T04:10:29.412Z,101969.47
2023-02-16T04:12:55.820Z,101979.19
2023-02-16T04:15:26.113Z,101977.50
2023-02-16T04:17:53.924Z,101984.41
2023-02-16T04:20:22.671Z,101974.34
2023-02-16T04:22:49.625Z,101986.88
2023-02-16T04:25:16.609Z,101994.03
2023-02-16T04:27:43.291Z,101985.44
2023-02-16T04:30:19.156Z,101987.97
2023-02-16T04:32:45.630Z,101980.91
2023-02-16T04:35:12.314Z,101980.50
2023-02-16T04:37:38.872Z,101983.56
2023-02-16T04:40:06.558Z,101990.81
2023-02-16T04:42:32.962Z,101993.19
2023-02-16T04:44:59.518Z,101983.97
2023-02-16T04:47:26.918Z,101987.59
2023-02-16T04:49:53.768Z,101997.47
2023-02-16T04:52:20.255Z,101986.88
2023-02-16T04:54:46.733Z,101993.81
2023-02-16T04:57:13.189Z,101983.91
2023-02-16T04:59:39.572Z,101986.13
2023-02-16T05:02:06.028Z,101983.63
2023-02-16T05:04:32.639Z,101976.81
2023-02-16T05:06:59.207Z,101984.84
2023-02-16T05:09:25.641Z,101988.00
2023-02-16T05:12:10.820Z,101984.41
2023-02-16T05:14:43.322Z,101974.09
2023-02-16T05:17:37.073Z,101980.72
2023-02-16T05:20:03.650Z,101977.66
2023-02-16T05:22:33.357Z,101977.16
2023-02-16T05:25:01.007Z,101979.03
2023-02-16T05:27:29.265Z,101983.16
2023-02-16T05:29:56.238Z,101977.56
2023-02-16T05:32:22.699Z,101978.28
2023-02-16T05:34:49.266Z,101971.50
2023-02-16T05:37:17.471Z,101975.97
2023-02-16T05:39:44.269Z,101970.22
2023-02-16T05:42:11.004Z,101957.16
2023-02-16T05:44:37.808Z,101962.13
2023-02-16T05:47:04.352Z,101958.66
2023-02-16T05:49:30.880Z,101960.88
2023-02-16T05:51:57.291Z,101968.47
2023-02-16T05:54:23.799Z,101968.63
2023-02-16T05:56:51.809Z,101978.34
2023-02-16T05:59:18.548Z,101977.63
2023-02-16T06:01:50.541Z,101966.19
2023-02-16T06:04:17.990Z,101980.22
2023-02-16T06:06:44.798Z,101986.28
2023-02-16T06:09:11.652Z,101981.38
2023-02-16T06:11:41.152Z,101991.84
2023-02-16T06:14:08.999Z,101987.28
2023-02-16T06:16:37.480Z,101988.94
2023-02-16T06:19:04.377Z,101991.28
2023-02-16T06:21:31.160Z,101984.75
2023-02-16T06:23:57.597Z,101975.31
2023-02-16T06:26:24.240Z,101981.66
2023-02-16T06:28:50.739Z,101983.09
2023-02-16T06:31:17.632Z,101980.06
2023-02-16T06:33:44.084Z,101980.75
2023-02-16T06:36:10.831Z,101984.81
2023-02-16T06:38:37.342Z,101985.59
2023-02-16T06:41:04.177Z,101978.81
2023-02-16T06:43:31.062Z,101974.31
2023-02-16T06:45:57.575Z,101975.03
2023-02-16T06:48:24.201Z,101975.03
2023-02-16T06:50:51.259Z,101969.75
2023-02-16T06:53:17.790Z,101972.88
2023-02-16T06:55:44.177Z,101987.34
2023-02-16T06:58:10.825Z,101982.34
2023-02-16T07:00:37.294Z,101992.16
2023-02-16T07:03:03.865Z,101984.78
2023-02-16T07:05:30.695Z,101979.00
2023-02-16T07:07:57.200Z,101978.00
2023-02-16T07:10:23.732Z,101980.19
2023-02-16T07:12:50.309Z,101985.13
2023-02-16T07:15:16.748Z,101997.59
2023-02-16T07:17:43.255Z,101999.47
2023-02-16T07:20:12.556Z,101983.56
2023-02-16T07:22:39.098Z,102003.47
2023-02-16T07:25:05.889Z,102009.19
2023-02-16T07:27:32.544Z,102014.63
2023-02-16T07:29:59.144Z,102012.09
2023-02-16T07:32:25.683Z,102012.13
2023-02-16T07:34:52.184Z,102002.69
2023-02-16T07:37:18.670Z,102007.28
2023-02-16T07:39:45.096Z,102020.38
2023-02-16T07:42:11.536Z,102005.56
2023-02-16T07:44:37.930Z,102007.09
2023-02-16T07:47:05.279Z,102008.66
2023-02-16T07:49:31.780Z,101996.63
2023-02-16T07:51:58.308Z,102002.78
2023-02-16T07:54:25.049Z,102009.38
2023-02-16T07:56:51.461Z,102000.72
2023-02-16T07:59:17.879Z,101994.38
2023-02-16T08:01:44.275Z,101991.41
2023-02-16T08:04:10.738Z,101993.00
2023-02-16T08:06:37.348Z,101991.31
2023-02-16T08:09:04.482Z,101993.41
2023-02-16T08:11:30.922Z,102008.66
2023-02-16T08:13:59.399Z,102004.22
2023-02-16T08:16:27.284Z,102009.31
2023-02-16T08:18:56.290Z,102002.88
2023-02-16T08:21:25.098Z,102004.44
2023-02-16T08:24:02.869Z,101994.56
2023-02-16T08:26:33.949Z,101978.09
2023-02-16T08:29:01.889Z,101981.53
2023-02-16T08:31:30.457Z,101976.19
2023-02-16T08:33:59.274Z,101990.72
2023-02-16T08:36:34.815Z,102005.97
2023-02-16T08:39:04.146Z,101994.56
2023-02-16T08:41:35.811Z,101995.09
2023-02-16T08:44:03.283Z,102004.66
2023-02-16T08:46:30.421Z,102014.22
2023-02-16T08:48:59.960Z,102002.44
2023-02-16T08:51:32.228Z,101995.59
2023-02-16T08:54:00.072Z,101998.31
2023-02-16T08:56:29.642Z,102000.72
2023-02-16T08:58:56.985Z,101999.88
2023-02-16T09:01:23.766Z,102006.81
2023-02-16T09:03:50.449Z,102015.59
2023-02-16T09:06:20.406Z,102022.47
2023-02-16T09:08:52.731Z,102012.59
2023-02-16T09:11:19.772Z,102024.38
2023-02-16T09:13:46.803Z,102021.09
2023-02-16T09:16:16.474Z,102012.72
2023-02-16T09:18:44.981Z,102015.38
2023-02-16T09:21:15.875Z,102017.28
2023-02-16T09:23:44.924Z,102015.41
2023-02-16T09:26:11.900Z,102014.25
2023-02-16T09:28:40.226Z,102011.63
2023-02-16T09:31:11.713Z,102015.81
2023-02-16T09:33:39.992Z,102015.81
2023-02-16T09:36:08.106Z,102018.91
2023-02-16T09:38:35.022Z,102027.69
2023-02-16T09:41:23.372Z,102030.34
2023-02-16T09:43:55.812Z,102022.34
2023-02-16T09:46:23.987Z,102014.31
2023-02-16T09:48:50.961Z,102024.63
2023-02-16T09:51:33.922Z,102025.38
2023-02-16T09:54:12.222Z,102032.97
2023-02-16T09:57:03.111Z,102023.06
2023-02-16T10:00:09.352Z,102020.38
2023-02-16T10:03:06.449Z,102021.44
2023-02-16T10:05:35.119Z,102039.31
2023-02-16T10:08:38.993Z,102031.94
2023-02-16T10:11:41.554Z,102035.63
2023-02-16T10:14:37.458Z,102028.56
2023-02-16T10:17:24.044Z,102025.81
2023-02-16T10:20:06.022Z,102033.44
2023-02-16T10:22:41.499Z,102048.53
2023-02-16T10:25:07.870Z,102033.72
2023-02-16T10:27:40.160Z,102042.75
2023-02-16T10:30:15.272Z,102056.25
2023-02-16T10:32:54.035Z,102052.09
2023-02-16T10:35:26.171Z,102041.50
2023-02-16T10:37:59.424Z,102041.22
2023-02-16T10:40:55.140Z,102043.91
2023-02-16T10:43:30.847Z,102040.88
2023-02-16T10:46:02.046Z,102038.53
2023-02-16T10:48:30.004Z,102039.69
2023-02-16T10:51:04.264Z,102045.75
2023-02-16T10:53:35.969Z,102044.91
2023-02-16T10:56:02.987Z,102052.06
2023-02-16T10:58:39.034Z,102046.69
2023-02-16T11:01:31.664Z,102035.13
2023-02-16T11:03:58.968Z,102033.66
2023-02-16T11:06:27.017Z,102037.44
2023-02-16T11:09:00.179Z,102042.41
2023-02-16T11:11:29.438Z,102037.72
2023-02-16T11:14:22.583Z,102032.91
2023-02-16T11:17:06.196Z,102027.59
2023-02-16T11:19:33.597Z,102031.59
2023-02-16T11:22:00.624Z,102039.28
2023-02-16T11:24:33.484Z,102039.66
2023-02-16T11:27:01.383Z,102047.06
2023-02-16T11:29:28.029Z,102052.38
2023-02-16T11:31:56.542Z,102043.16
2023-02-16T11:34:35.130Z,102039.28
2023-02-16T11:37:04.303Z,102044.63
2023-02-16T11:39:35.989Z,102039.09
2023-02-16T11:42:31.802Z,102046.31
2023-02-16T11:44:59.724Z,102033.75
2023-02-16T11:47:31.417Z,102033.00
2023-02-16T11:50:22.667Z,102029.66
2023-02-16T11:53:12.255Z,102029.97
2023-02-16T11:55:43.153Z,102028.34
2023-02-16T11:58:18.660Z,102030.31
2023-02-16T12:01:24.456Z,102029.94
2023-02-16T12:04:11.343Z,102029.34
2023-02-16T12:07:03.598Z,102033.00
2023-02-16T12:09:51.818Z,102030.06
2023-02-16T12:12:29.369Z,102021.47
2023-02-16T12:15:09.115Z,102024.59
2023-02-16T12:17:56.826Z,102023.84
2023-02-16T12:20:41.801Z,102013.84
2023-02-16T12:23:47.952Z,102012.69
2023-02-16T12:26:37.343Z,102008.91
2023-02-16T12:29:20.790Z,102005.16
2023-02-16T12:32:01.255Z,102013.22
2023-02-16T12:35:01.569Z,102013.31
2023-02-16T12:37:40.049Z,102002.56
2023-02-16T12:40:36.121Z,101995.72
2023-02-16T12:43:58.068Z,101978.72
2023-02-16T12:46:33.912Z,101983.00
2023-02-16T12:49:28.005Z,101978.44
2023-02-16T12:52:07.007Z,101976.38
2023-02-16T12:54:38.952Z,101977.13
2023-02-16T12:57:10.882Z,101981.31
2023-02-16T13:00:09.067Z,101966.50
2023-02-16T13:03:04.978Z,101960.47
2023-02-16T13:05:35.904Z,101957.44
2023-02-16T13:08:08.377Z,101950.59
2023-02-16T13:10:57.630Z,101945.28
2023-02-16T13:13:26.601Z,101938.28
2023-02-16T13:16:29.066Z,101940.19
2023-02-16T13:18:57.270Z,101933.44
2023-02-16T13:21:49.114Z,101924.47
2023-02-16T13:24:39.223Z,101918.97
2023-02-16T13:27:23.701Z,101922.63
2023-02-16T13:29:52.890Z,101922.03
2023-02-16T13:32:28.489Z,101927.84
2023-02-16T13:35:23.066Z,101919.63
2023-02-16T13:38:11.411Z,101923.56
2023-02-16T13:41:09.908Z,101928.94
2023-02-16T13:43:41.042Z,101924.41
2023-02-16T13:46:14.333Z,101924.91
2023-02-16T13:48:50.851Z,101925.72
2023-02-16T13:51:22.682Z,101929.63
2023-02-16T13:53:59.278Z,101923.09
2023-02-16T13:56:28.800Z,101917.81
2023-02-16T13:58:58.107Z,101913.25
2023-02-16T14:01:37.744Z,101916.28
2023-02-16T14:04:13.117Z,101927.81
2023-02-16T14:06:42.673Z,101918.78
2023-02-16T14:09:12.167Z,101919.53
2023-02-16T14:11:50.731Z,101918.84
2023-02-16T14:14:30.390Z,101912.75
2023-02-16T14:17:18.299Z,101913.91
2023-02-16T14:20:05.694Z,101910.09
2023-02-16T14:22:50.831Z,101906.66
2023-02-16T14:25:20.541Z,101909.72
2023-02-16T14:27:49.249Z,101918.09
2023-02-16T14:30:39.117Z,101909.09
2023-02-16T14:33:18.390Z,101919.75
2023-02-16T14:35:47.384Z,101914.81
2023-02-16T14:38:22.211Z,101912.88
2023-02-16T14:40:56.466Z,101915.09
2023-02-16T14:43:44.961Z,101912.13
2023-02-16T14:46:17.459Z,101921.25
2023-02-16T14:49:06.530Z,101919.31
2023-02-16T14:51:55.695Z,101911.28
2023-02-16T14:54:47.287Z,101917.34
2023-02-16T14:57:16.845Z,101916.94
2023-02-16T14:59:52.909Z,101917.38
2023-02-16T15:02:34.835Z,101917.38
2023-02-16T15:05:19.150Z,101914.34
2023-02-16T15:07:50.592Z,101915.91
2023-02-16T15:10:26.647Z,101920.47
2023-02-16T15:12:54.587Z,101917.47
2023-02-16T15:15:34.961Z,101920.88
2023-02-16T15:18:01.765Z,101918.97
2023-02-16T15:20:37.108Z,101918.16
2023-02-16T15:23:10.150Z,101915.13
2023-02-16T15:25:39.390Z,101915.88
2023-02-16T15:28:11.927Z,101899.09
2023-02-16T15:30:43.444Z,101899.09
2023-02-16T15:33:27.214Z,101899.13
2023-02-16T15:35:56.985Z,101899.88
2023-02-16T15:38:25.555Z,101903.31
2023-02-16T15:40:56.734Z,101886.94
2023-02-16T15:43:39.891Z,101887.28
2023-02-16T15:46:08.925Z,101888.44
2023-02-16T15:48:37.652Z,101882.34
